Time;durP1;ratioP1;P1;durP2;ratioP2;P2;SDS_P1;SDS_P2;PMS_P1;PMS_P2;Temp;Humidity;BMP_temperature;BMP_pressure;BME280_temperature;BME280_humidity;BME280_pressure;Samples;Min_cycle;Max_cycle;Signal;HPM_P1;HPM_P2
2023/02/01 00:01:19;;;;;;;15.65;7.63;;;4.50;99.90;;;4.80;100.00;98440.47;4961875;28;20047;-69
2023/02/01 00:03:46;;;;;;;15.35;6.03;;;4.50;99.90;;;4.84;100.00;98433.59;4960110;28;20117;-69
2023/02/01 00:06:13;;;;;;;14.20;6.72;;;4.50;99.90;;;4.70;100.00;98424.22;4960296;28;20141;-68
2023/02/01 00:08:39;;;;;;;10.95;5.40;;;4.50;99.90;;;4.74;100.00;98413.03;4963187;28;20156;-69
2023/02/01 00:11:10;;;;;;;17.70;6.25;;;4.60;99.90;;;4.82;100.00;98388.13;4962235;28;20051;-69
2023/02/01 00:13:41;;;;;;;13.65;5.80;;;4.60;99.90;;;4.85;100.00;98379.53;4964732;28;20053;-69
2023/02/01 00:16:18;;;;;;;9.25;5.43;;;4.50;99.90;;;4.66;100.00;98363.38;4965491;28;20403;-69
2023/02/01 00:18:48;;;;;;;12.38;5.38;;;4.50;99.90;;;4.84;100.00;98356.44;4964089;28;20090;-69
2023/02/01 00:21:20;;;;;;;12.02;5.93;;;4.50;99.90;;;4.92;100.00;98355.47;4961431;28;20054;-69
2023/02/01 00:23:47;;;;;;;12.23;5.87;;;4.50;99.90;;;4.77;100.00;98338.44;4962473;28;20153;-69
2023/02/01 00:26:40;;;;;;;9.88;5.07;;;4.50;99.90;;;4.64;100.00;98336.81;4962016;28;20158;-69
2023/02/01 00:29:17;;;;;;;12.27;6.38;;;4.50;99.90;;;4.79;100.00;98330.72;4960271;28;20051;-69
2023/02/01 00:31:45;;;;;;;7.85;5.55;;;4.50;99.90;;;4.69;100.00;98319.63;4963966;28;20054;-69
2023/02/01 00:34:16;;;;;;;12.98;5.78;;;4.40;99.90;;;4.64;100.00;98312.84;4963861;28;20054;-68
2023/02/01 00:36:44;;;;;;;13.50;5.60;;;4.40;99.90;;;4.43;100.00;98329.25;4966500;28;20125;-69
2023/02/01 00:39:11;;;;;;;9.25;5.28;;;4.40;99.90;;;4.53;100.00;98310.34;4963919;28;20054;-69
2023/02/01 00:41:38;;;;;;;13.77;6.00;;;4.40;99.90;;;4.61;100.00;98309.41;4965474;28;20145;-69
2023/02/01 00:44:06;;;;;;;11.60;6.32;;;4.40;99.90;;;4.47;100.00;98333.50;4947204;28;20062;-69
2023/02/01 00:46:33;;;;;;;13.00;6.40;;;4.50;99.90;;;4.49;100.00;98339.47;4976115;28;20074;-69
2023/02/01 00:49:00;;;;;;;14.70;6.72;;;4.40;99.90;;;4.53;100.00;98318.03;4961814;28;20146;-69
2023/02/01 00:51:29;;;;;;;13.68;8.57;;;4.40;99.90;;;4.43;100.00;98350.66;4962596;28;20050;-69
2023/02/01 00:53:56;;;;;;;15.38;8.10;;;4.40;99.90;;;4.31;100.00;98354.16;4963003;28;20054;-69
2023/02/01 00:56:23;;;;;;;16.92;7.47;;;4.40;99.90;;;4.48;100.00;98337.78;4963708;28;20058;-69
2023/02/01 00:58:50;;;;;;;9.82;5.75;;;4.50;99.90;;;4.47;100.00;98329.22;4962636;28;20093;-69
2023/02/01 01:01:26;;;;;;;17.13;7.63;;;4.40;99.90;;;4.36;100.00;98357.56;4961357;28;20058;-69
2023/02/01 01:03:58;;;;;;;13.80;7.15;;;4.50;99.90;;;4.57;100.00;98337.72;4962683;28;20073;-69
2023/02/01 01:06:31;;;;;;;15.73;7.07;;;4.50;99.90;;;4.58;100.00;98316.28;4959999;28;20051;-69
2023/02/01 01:09:05;;;;;;;12.30;5.70;;;4.40;99.90;;;4.48;100.00;98302.66;4963296;28;20462;-69
2023/02/01 01:11:37;;;;;;;15.90;7.70;;;4.40;99.90;;;4.39;100.00;98354.97;4961758;28;20049;-69
2023/02/01 01:14:08;;;;;;;13.45;7.40;;;4.40;99.90;;;4.51;100.00;98350.63;4963713;28;20420;-69
2023/02/01 01:16:35;;;;;;;15.05;7.88;;;4.50;99.90;;;4.48;100.00;98371.22;4959643;28;20054;-69
2023/02/01 01:19:02;;;;;;;16.77;9.38;;;4.40;99.90;;;4.59;100.00;98354.00;4962814;28;20078;-69
2023/02/01 01:21:30;;;;;;;17.02;9.60;;;4.50;99.90;;;4.44;100.00;98360.06;4961816;28;20047;-69
2023/02/01 01:23:57;;;;;;;16.90;8.90;;;4.60;99.90;;;4.59;100.00;98336.00;4962296;28;20042;-69
2023/02/01 01:26:27;;;;;;;12.90;6.80;;;4.50;99.90;;;4.49;100.00;98344.63;4963652;28;20062;-69
2023/02/01 01:28:56;;;;;;;10.55;6.45;;;4.40;99.90;;;4.46;100.00;98347.22;4963418;28;20057;-69
2023/02/01 01:31:24;;;;;;;13.45;7.35;;;4.40;99.90;;;4.40;100.00;98332.69;4962420;28;20185;-69
2023/02/01 01:33:55;;;;;;;16.75;7.13;;;4.40;99.90;;;4.49;100.00;98334.34;4962049;28;20078;-68
2023/02/01 01:36:22;;;;;;;14.63;6.40;;;4.40;99.90;;;4.24;100.00;98325.91;4964821;28;20150;-69
2023/02/01 01:38:49;;;;;;;18.98;8.70;;;4.30;99.90;;;4.07;100.00;98344.84;4961673;28;20054;-69
2023/02/01 01:41:26;;;;;;;12.73;8.07;;;4.40;99.90;;;4.00;100.00;98356.00;4976420;28;20058;-69
2023/02/01 01:43:58;;;;;;;16.27;9.25;;;4.40;99.90;;;3.88;100.00;98348.38;4963142;28;20748;-69
2023/02/01 01:46:32;;;;;;;22.07;8.80;;;4.50;99.90;;;4.07;100.00;98367.13;4961005;28;20050;-69
2023/02/01 01:49:02;;;;;;;17.25;9.25;;;4.50;99.90;;;3.93;100.00;98369.75;4975770;28;20514;-68
2023/02/01 01:51:31;;;;;;;15.23;8.98;;;4.50;99.90;;;4.05;100.00;98372.25;4963217;28;20048;-69
2023/02/01 01:54:16;;;;;;;17.27;8.70;;;4.60;99.90;;;4.05;100.00;98385.09;4961042;28;20042;-69
2023/02/01 01:56:49;;;;;;;15.68;8.15;;;4.50;99.90;;;4.05;100.00;98379.97;4963780;28;20047;-69
2023/02/01 01:59:16;;;;;;;18.27;8.88;;;4.50;99.90;;;4.02;100.00;98403.09;4958394;28;20055;-68
2023/02/01 02:01:43;;;;;;;14.82;7.00;;;4.50;99.90;;;4.10;100.00;98382.50;4959758;28;20046;-69
2023/02/01 02:04:10;;;;;;;12.95;5.72;;;4.50;99.90;;;4.05;100.00;98391.97;4961452;28;20058;-69
2023/02/01 02:06:58;;;;;;;11.18;5.10;;;4.50;99.90;;;4.08;100.00;98384.22;4957326;28;20047;-69
2023/02/01 02:09:25;;;;;;;11.43;6.05;;;4.60;99.90;;;4.05;100.00;98402.25;4949051;28;20110;-69
2023/02/01 02:11:52;;;;;;;15.05;6.95;;;4.50;99.90;;;4.04;100.00;98390.22;4960816;28;20066;-69
2023/02/01 02:14:23;;;;;;;14.27;7.78;;;4.50;99.90;;;4.04;100.00;98379.97;4975588;28;20053;-69
2023/02/01 02:17:19;;;;;;;15.45;6.47;;;4.40;99.90;;;3.95;100.00;98396.28;4962673;28;20434;-70
2023/02/01 02:20:40;;;;;;;20.02;7.45;;;4.50;99.90;;;4.11;100.00;98363.69;4962590;28;20153;-69
2023/02/01 02:23:44;;;;;;;13.90;7.57;;;4.40;99.90;;;4.00;100.00;98394.53;4960380;28;20047;-68
2023/02/01 02:26:35;;;;;;;14.73;8.97;;;4.40;99.90;;;3.98;100.00;98396.25;4963800;28;20138;-69
2023/02/01 02:29:40;;;;;;;19.27;10.75;;;4.50;99.90;;;3.99;100.00;98385.09;4955700;28;20276;-69
2023/02/01 02:32:59;;;;;;;16.48;7.63;;;4.50;99.90;;;4.05;100.00;98379.97;4962536;28;20050;-69
2023/02/01 02:35:35;;;;;;;18.27;8.00;;;4.50;99.90;;;4.00;100.00;98368.00;4960505;28;20669;-69
2023/02/01 02:38:28;;;;;;;17.13;8.90;;;4.40;99.90;;;4.03;100.00;98321.75;4960914;28;20047;-69
2023/02/01 02:47:25;;;;;;;17.23;7.50;;;4.50;99.90;;;4.03;100.00;98329.44;4966493;28;20421;-68
2023/02/01 03:04:29;;;;;;;20.33;8.80;;;4.50;99.90;;;3.97;100.00;98307.22;4966522;28;20105;-69
2023/02/01 03:06:56;;;;;;;17.42;8.55;;;4.50;99.90;;;4.10;100.00;98301.16;4959258;28;20047;-68
2023/02/01 03:09:35;;;;;;;15.88;8.05;;;4.40;99.90;;;4.04;100.00;98298.63;4964858;28;20769;-68
2023/02/01 03:15:06;;;;;;;23.35;8.95;;;4.40;99.90;;;4.02;100.00;98290.06;4967542;28;20050;-68
2023/02/01 03:17:39;;;;;;;18.17;9.05;;;4.40;99.90;;;4.08;100.00;98295.19;4966074;28;20055;-69
2023/02/01 03:20:10;;;;;;;13.63;7.55;;;4.50;99.90;;;4.08;100.00;98295.19;4962364;28;20051;-68
2023/02/01 03:22:39;;;;;;;19.95;9.15;;;4.40;99.90;;;4.60;100.00;98286.28;4960516;28;20105;-68
2023/02/01 03:25:18;;;;;;;18.88;8.95;;;4.50;99.90;;;4.11;100.00;98276.34;4961030;28;20061;-69
2023/02/01 03:28:09;;;;;;;14.52;7.80;;;4.40;99.90;;;4.15;100.00;98306.25;4962859;28;20130;-69
2023/02/01 03:30:43;;;;;;;10.43;6.68;;;4.50;99.90;;;4.14;100.00;98299.44;4961421;28;20051;-69
2023/02/01 03:33:22;;;;;;;10.35;5.72;;;4.50;99.90;;;4.10;100.00;98288.31;4964161;28;20065;-69
2023/02/01 03:36:10;;;;;;;10.15;5.25;;;4.40;99.90;;;4.09;100.00;98285.75;4963699;28;20054;-69
2023/02/01 03:38:51;;;;;;;13.40;6.13;;;4.50;99.90;;;4.15;100.00;98253.19;4962304;28;20050;-69
2023/02/01 03:41:35;;;;;;;16.00;5.93;;;4.30;99.90;;;4.25;100.00;98273.69;4963471;28;20432;-68
2023/02/01 03:44:29;;;;;;;16.13;5.40;;;4.40;99.90;;;4.16;100.00;98285.72;4965223;28;20055;-69
2023/02/01 03:47:14;;;;;;;15.85;6.78;;;4.40;99.90;;;4.19;100.00;98292.53;4965652;28;20054;-69
2023/02/01 03:49:50;;;;;;;15.65;6.30;;;4.40;99.90;;;4.24;100.00;98303.63;4963495;28;20050;-69
2023/02/01 03:52:24;;;;;;;13.15;6.68;;;4.40;99.90;;;4.21;100.00;98289.97;4976357;28;20043;-68
2023/02/01 03:54:52;;;;;;;18.58;7.30;;;4.40;99.90;;;4.17;100.00;98312.25;4965458;28;20047;-68
2023/02/01 03:57:26;;;;;;;19.23;8.40;;;4.50;99.90;;;4.32;100.00;98301.88;4961649;28;20054;-68
2023/02/01 04:00:14;;;;;;;18.95;8.20;;;4.50;99.90;;;4.28;100.00;98295.06;4977581;28;20050;-68
2023/02/01 04:02:42;;;;;;;16.95;6.30;;;4.50;99.90;;;4.29;100.00;98295.91;4965380;28;20132;-68
2023/02/01 04:05:09;;;;;;;15.73;6.38;;;4.60;99.90;;;4.35;100.00;98289.00;4976221;28;20161;-68
2023/02/01 04:07:36;;;;;;;15.15;6.68;;;4.60;99.90;;;4.25;100.00;98305.38;4960604;28;20054;-69
2023/02/01 04:10:04;;;;;;;13.93;4.97;;;4.60;99.90;;;4.33;100.00;98295.91;4962330;28;20055;-69
2023/02/01 04:12:31;;;;;;;14.63;5.70;;;4.70;99.90;;;4.28;100.00;98305.34;4965115;28;20047;-68
2023/02/01 04:14:58;;;;;;;10.35;4.97;;;4.70;99.90;;;4.27;100.00;98306.22;4963104;28;20051;-69
2023/02/01 04:17:25;;;;;;;12.52;4.75;;;4.70;99.90;;;4.27;100.00;98289.94;4961014;28;20051;-68
2023/02/01 04:19:52;;;;;;;10.57;4.28;;;4.70;99.90;;;4.38;100.00;98307.00;4958846;28;20431;-68
2023/02/01 04:22:21;;;;;;;10.82;4.53;;;4.70;99.90;;;4.27;100.00;98295.94;4959949;28;20051;-69
2023/02/01 04:24:48;;;;;;;11.48;5.30;;;4.70;99.90;;;4.25;100.00;98292.50;4945189;28;20063;-68
2023/02/01 04:27:15;;;;;;;14.30;5.15;;;4.70;99.90;;;4.33;100.00;98295.03;4961586;28;20143;-68
2023/02/01 04:29:42;;;;;;;11.38;4.45;;;4.70;99.90;;;4.34;100.00;98286.47;4967164;28;20043;-68
2023/02/01 04:32:09;;;;;;;15.45;5.18;;;4.80;99.90;;;4.29;100.00;98288.19;4958217;28;20147;-69
2023/02/01 04:34:36;;;;;;;15.93;6.65;;;4.80;99.90;;;4.32;100.00;98301.03;4951403;28;20130;-69
2023/02/01 04:37:03;;;;;;;12.10;6.00;;;4.80;99.90;;;4.33;100.00;98284.75;4958479;28;20043;-68
2023/02/01 04:39:30;;;;;;;14.98;7.15;;;4.70;99.90;;;4.24;100.00;98301.06;4960448;28;20122;-69
2023/02/01 04:41:57;;;;;;;15.93;6.97;;;4.70;99.90;;;4.26;100.00;98317.34;4967488;28;20051;-69
2023/02/01 04:44:24;;;;;;;15.95;7.90;;;4.70;99.90;;;4.13;100.00;98318.28;4960657;28;20053;-69
2023/02/01 04:46:52;;;;;;;16.85;6.90;;;4.70;99.90;;;4.38;100.00;98326.72;4958085;28;20058;-69
2023/02/01 04:49:21;;;;;;;11.82;6.03;;;4.70;99.90;;;4.36;100.00;98307.88;4961360;28;20061;-70
2023/02/01 04:51:48;;;;;;;14.82;6.20;;;4.60;99.90;;;4.48;100.00;98304.38;4973531;28;20531;-70
2023/02/01 04:54:15;;;;;;;11.23;6.38;;;4.50;99.90;;;4.43;100.00;98304.41;4961052;28;20051;-69
2023/02/01 04:56:42;;;;;;;15.45;6.82;;;4.50;99.90;;;4.56;100.00;98310.31;4961237;28;20924;-69
2023/02/01 04:59:11;;;;;;;15.32;6.82;;;4.50;99.90;;;4.34;100.00;98336.16;4975769;28;20061;-69
2023/02/01 05:01:38;;;;;;;15.70;7.15;;;4.50;99.90;;;4.48;100.00;98304.38;4966502;28;20449;-70
2023/02/01 05:04:05;;;;;;;16.20;7.20;;;4.60;99.90;;;4.58;100.00;98294.03;4959333;28;20055;-69
2023/02/01 05:06:32;;;;;;;17.63;8.07;;;4.60;99.90;;;4.65;100.00;98307.66;4964462;28;20517;-69
2023/02/01 05:08:59;;;;;;;20.23;9.20;;;4.60;99.90;;;4.54;100.00;98315.47;4963899;28;20051;-69
2023/02/01 05:14:12;;;;;;;21.17;9.55;;;4.60;99.90;;;4.40;100.00;98302.72;4964004;28;20123;-69
2023/02/01 05:16:40;;;;;;;22.02;8.55;;;4.60;99.90;;;4.34;100.00;98289.88;4972687;28;20434;-69
2023/02/01 05:19:07;;;;;;;23.13;9.25;;;4.60;99.90;;;4.34;100.00;98291.63;4959027;28;20425;-69
2023/02/01 05:21:34;;;;;;;15.95;9.43;;;4.60;99.90;;;4.41;100.00;98290.72;4955491;28;20062;-69
2023/02/01 05:24:10;;;;;;;21.75;8.05;;;4.60;99.90;;;4.40;100.00;98301.84;4958170;28;20051;-68
2023/02/01 05:26:41;;;;;;;16.65;7.53;;;4.60;99.90;;;4.39;100.00;98307.84;4973857;28;20051;-69
2023/02/01 05:29:10;;;;;;;22.42;7.00;;;4.60;99.90;;;4.39;100.00;98306.13;4976229;28;20106;-69
2023/02/01 05:31:37;;;;;;;18.33;6.97;;;4.60;99.90;;;4.30;100.00;98295.06;4958563;28;20058;-69
2023/02/01 05:34:06;;;;;;;16.08;7.10;;;4.50;99.90;;;4.30;100.00;98300.19;4957327;28;20498;-69
2023/02/01 05:36:33;;;;;;;15.70;7.40;;;4.60;99.90;;;4.26;100.00;98304.47;4960454;28;20047;-69
2023/02/01 05:39:00;;;;;;;13.13;5.45;;;4.60;99.90;;;4.37;100.00;98297.56;4959988;28;20046;-69
2023/02/01 05:41:27;;;;;;;18.15;6.00;;;4.60;99.90;;;4.30;100.00;98285.63;4962548;28;20062;-69
2023/02/01 05:43:54;;;;;;;12.30;5.55;;;4.50;99.90;;;4.26;100.00;98294.22;4960779;28;20076;-69
2023/02/01 05:46:21;;;;;;;16.52;5.95;;;4.60;99.90;;;4.24;100.00;98277.09;4963941;28;20057;-69
2023/02/01 05:48:48;;;;;;;16.13;5.07;;;4.40;99.90;;;4.29;100.00;98259.94;4948379;28;20054;-69
2023/02/01 05:51:17;;;;;;;22.35;5.88;;;4.40;99.90;;;4.18;100.00;98266.00;4961926;28;20414;-69
2023/02/01 05:53:44;;;;;;;20.48;4.80;;;4.40;99.90;;;4.16;100.00;98259.16;4957609;28;20051;-69
2023/02/01 05:56:11;;;;;;;17.40;4.80;;;4.30;99.90;;;4.15;100.00;98254.88;4958560;28;20532;-69
2023/02/01 05:58:39;;;;;;;10.90;3.63;;;4.30;99.90;;;4.18;100.00;98260.00;4951866;28;20069;-69
2023/02/01 06:01:05;;;;;;;16.83;3.15;;;4.30;99.90;;;4.10;100.00;98266.91;4961488;28;20077;-69
2023/02/01 06:03:33;;;;;;;9.35;2.50;;;4.30;99.90;;;4.21;100.00;98265.13;4960162;28;20141;-69
2023/02/01 06:06:00;;;;;;;11.45;2.70;;;4.40;99.90;;;4.14;100.00;98278.88;4962982;28;20129;-69
2023/02/01 06:08:28;;;;;;;10.73;3.08;;;4.50;99.90;;;4.10;100.00;98272.88;4960483;28;20057;-69
2023/02/01 06:11:04;;;;;;;6.22;2.75;;;4.50;99.90;;;4.11;100.00;98263.50;4961093;28;20040;-69
2023/02/01 06:13:32;;;;;;;9.00;2.72;;;4.50;99.90;;;4.14;100.00;98281.44;4961913;28;20051;-69
2023/02/01 06:16:06;;;;;;;14.52;4.25;;;4.50;99.90;;;4.21;100.00;98297.69;4975760;28;20047;-69
2023/02/01 06:18:35;;;;;;;15.07;4.30;;;4.50;99.90;;;4.17;100.00;98282.28;4959619;28;20137;-69
2023/02/01 06:21:03;;;;;;;14.63;5.07;;;4.50;99.90;;;4.12;100.00;98293.44;4966435;28;20051;-69
2023/02/01 06:23:30;;;;;;;20.63;6.40;;;4.70;99.90;;;4.12;100.00;98283.16;4966816;28;20067;-69
2023/02/01 06:26:10;;;;;;;16.08;6.30;;;4.70;99.90;;;4.33;100.00;98275.34;4967111;28;20063;-69
2023/02/01 06:28:38;;;;;;;19.15;7.10;;;4.60;99.90;;;4.24;100.00;98300.22;4965945;28;20049;-69
2023/02/01 06:31:06;;;;;;;24.60;6.32;;;4.70;99.90;;;4.29;100.00;98283.94;4965691;28;20141;-69
2023/02/01 06:33:35;;;;;;;18.08;6.63;;;4.70;99.90;;;4.35;100.00;98280.44;4963893;28;20429;-69
2023/02/01 06:36:06;;;;;;;27.02;7.90;;;4.80;99.90;;;4.55;100.00;98283.75;4981620;28;20151;-69
2023/02/01 06:38:35;;;;;;;17.90;6.53;;;4.70;99.90;;;4.43;100.00;98294.13;4964217;28;20526;-67
2023/02/01 06:41:03;;;;;;;20.45;8.27;;;4.70;99.90;;;4.35;100.00;98290.72;4964435;28;20134;-69
2023/02/01 06:43:32;;;;;;;28.08;7.97;;;4.60;99.90;;;4.28;100.00;98299.34;4962558;28;20061;-67
2023/02/01 06:46:05;;;;;;;24.42;8.48;;;4.70;99.90;;;4.37;100.00;98296.72;4967845;28;20050;-66
2023/02/01 06:48:32;;;;;;;29.20;8.05;;;4.70;99.90;;;4.29;100.00;98293.34;4964001;28;20153;-67
2023/02/01 06:51:00;;;;;;;21.30;7.88;;;4.70;99.90;;;4.28;100.00;98301.91;4963380;28;20126;-66
2023/02/01 06:53:27;;;;;;;20.00;7.13;;;4.70;99.90;;;4.38;100.00;98294.16;4964520;28;20047;-67
2023/02/01 06:56:02;;;;;;;22.92;7.68;;;4.60;99.90;;;4.22;100.00;98283.97;4946471;28;20126;-70
2023/02/01 06:58:33;;;;;;;19.13;7.28;;;4.60;99.90;;;4.16;100.00;98301.13;4964436;28;20078;-68
2023/02/01 07:01:08;;;;;;;25.95;7.82;;;4.60;99.90;;;4.21;100.00;98288.25;4962226;28;20155;-67
2023/02/01 07:03:36;;;;;;;13.55;5.20;;;4.50;99.90;;;4.25;100.00;98291.66;4959246;28;20055;-67
2023/02/01 07:06:04;;;;;;;22.45;7.18;;;4.60;99.90;;;4.34;100.00;98307.88;4976074;28;20125;-68
2023/02/01 07:08:34;;;;;;;22.25;6.03;;;4.40;99.90;;;4.22;100.00;98318.25;4959647;28;20058;-69
2023/02/01 07:11:10;;;;;;;20.98;6.80;;;4.50;99.90;;;4.20;100.00;98317.38;4960100;28;20570;-69
2023/02/01 07:13:38;;;;;;;19.20;6.55;;;4.50;99.90;;;4.29;100.00;98298.47;4961615;28;20050;-69
2023/02/01 07:16:14;;;;;;;25.92;6.72;;;4.40;99.90;;;4.24;100.00;98315.63;4965382;28;20075;-69
2023/02/01 07:18:42;;;;;;;21.65;7.05;;;4.40;99.90;;;4.12;100.00;98322.53;4960924;28;20062;-69
2023/02/01 07:21:09;;;;;;;22.73;7.40;;;4.40;99.90;;;4.10;100.00;98315.72;4963241;28;20150;-69
2023/02/01 07:23:37;;;;;;;26.08;7.90;;;4.40;99.90;;;4.21;100.00;98313.09;4959107;28;20062;-69
2023/02/01 07:26:07;;;;;;;17.58;6.72;;;4.40;99.90;;;4.17;100.00;98304.53;4963160;28;20213;-69
2023/02/01 07:28:37;;;;;;;26.25;8.38;;;4.30;99.90;;;4.24;100.00;98319.06;4959904;28;20063;-69
2023/02/01 07:31:05;;;;;;;27.27;7.93;;;4.40;99.90;;;4.16;100.00;98316.53;4963270;28;20110;-69
2023/02/01 07:33:33;;;;;;;26.00;7.85;;;4.50;99.90;;;4.13;100.00;98320.84;4957038;28;20143;-69
2023/02/01 07:36:18;;;;;;;20.45;7.25;;;4.50;99.90;;;4.25;100.00;98323.34;4964034;28;20568;-69
2023/02/01 07:38:50;;;;;;;33.47;8.20;;;4.60;99.90;;;4.15;100.00;98330.25;4964733;28;20170;-69
2023/02/01 07:41:19;;;;;;;30.00;7.63;;;4.60;99.90;;;4.22;100.00;98317.38;4961561;28;20058;-67
2023/02/01 07:43:46;;;;;;;26.95;7.00;;;4.70;99.90;;;4.33;100.00;98325.88;4961670;28;20062;-69
2023/02/01 07:46:15;;;;;;;29.80;8.18;;;4.70;99.90;;;4.31;100.00;98313.06;4965980;28;20042;-68
2023/02/01 07:48:42;;;;;;;25.88;7.53;;;4.70;99.90;;;4.32;100.00;98325.03;4978496;28;20051;-69
2023/02/01 07:51:16;;;;;;;24.92;7.28;;;4.70;99.90;;;4.29;100.00;98290.75;4963197;28;20078;-69
2023/02/01 07:53:44;;;;;;;18.92;6.05;;;4.80;99.90;;;4.39;100.00;98316.41;4963668;28;20055;-69
2023/02/01 07:56:15;;;;;;;18.88;5.70;;;4.80;99.90;;;4.35;100.00;98325.00;4963453;28;20094;-69
2023/02/01 07:58:43;;;;;;;33.75;6.97;;;4.70;99.90;;;4.38;100.00;98325.00;4960343;28;20485;-69
2023/02/01 08:01:30;;;;;;;22.80;5.88;;;4.70;99.90;;;4.36;100.00;98324.16;4959874;28;20051;-69
2023/02/01 08:04:00;;;;;;;25.08;5.68;;;4.80;99.90;;;4.25;100.00;98332.78;4961449;28;20062;-69
2023/02/01 08:06:34;;;;;;;20.10;5.72;;;4.80;99.90;;;4.34;100.00;98330.16;4975964;28;20055;-69
2023/02/01 08:09:03;;;;;;;18.10;5.50;;;4.80;99.90;;;4.36;100.00;98341.28;4961050;28;20070;-69
2023/02/01 08:11:30;;;;;;;28.55;5.93;;;4.90;99.90;;;4.26;100.00;98352.47;4960884;28;20054;-69
2023/02/01 08:13:58;;;;;;;19.80;5.80;;;4.90;99.90;;;4.31;100.00;98332.72;4961767;28;20476;-69
2023/02/01 08:16:28;;;;;;;19.70;5.82;;;5.00;99.90;;;4.26;100.00;98343.03;4959655;28;20795;-68
2023/02/01 08:18:55;;;;;;;20.15;5.53;;;5.00;99.90;;;4.48;100.00;98341.22;4959992;28;20060;-66
2023/02/01 08:21:26;;;;;;;20.67;4.85;;;5.00;99.90;;;4.44;100.00;98359.22;4964800;28;20360;-69
2023/02/01 08:23:53;;;;;;;27.10;5.07;;;4.90;99.90;;;4.26;100.00;98343.03;4958792;28;20065;-69
2023/02/01 08:26:24;;;;;;;19.15;4.47;;;4.90;99.90;;;4.28;100.00;98354.16;4962978;28;20500;-68
2023/02/01 08:28:58;;;;;;;25.23;5.13;;;4.90;99.90;;;4.28;100.00;98359.31;4981984;28;20039;-69
2023/02/01 08:31:27;;;;;;;23.77;4.68;;;5.00;99.90;;;4.56;100.00;98334.31;4948480;28;20053;-69
2023/02/01 08:33:58;;;;;;;26.50;5.30;;;5.10;99.90;;;4.48;100.00;98325.78;4958088;28;20050;-68
2023/02/01 08:36:29;;;;;;;24.95;4.38;;;5.10;99.90;;;4.63;100.00;98326.53;4961305;28;20132;-69
2023/02/01 08:38:57;;;;;;;22.73;5.30;;;5.20;99.90;;;4.81;100.00;98321.25;4974992;28;20047;-69
2023/02/01 08:41:28;;;;;;;21.67;4.57;;;5.20;99.90;;;4.52;100.00;98327.47;4962176;28;20050;-68
2023/02/01 08:43:59;;;;;;;21.58;3.67;;;5.30;99.90;;;4.77;100.00;98323.03;4961161;28;20111;-68
2023/02/01 08:46:26;;;;;;;20.63;4.32;;;5.40;99.90;;;4.84;100.00;98320.41;4962999;28;20051;-69
2023/02/01 08:48:53;;;;;;;24.08;4.80;;;5.30;99.90;;;4.72;100.00;98311.94;4964116;28;20047;-69
2023/02/01 08:51:22;;;;;;;17.98;3.38;;;5.30;99.90;;;4.64;100.00;98315.41;4962012;28;20053;-69
2023/02/01 08:53:50;;;;;;;18.83;4.15;;;5.40;99.90;;;4.76;100.00;98312.72;4960805;28;20053;-69
2023/02/01 08:56:19;;;;;;;23.65;4.35;;;5.40;99.90;;;4.77;100.00;98314.47;4977193;28;20050;-68
2023/02/01 08:58:46;;;;;;;18.02;4.63;;;5.40;99.90;;;4.75;100.00;98311.03;4963499;28;20107;-69
2023/02/01 09:01:16;;;;;;;28.05;4.65;;;5.30;99.90;;;4.40;100.00;98309.53;4961480;28;20057;-68
2023/02/01 09:03:44;;;;;;;19.42;4.18;;;5.40;99.90;;;4.67;100.00;98315.38;4973824;28;20062;-68
2023/02/01 09:06:14;;;;;;;28.15;4.43;;;5.40;99.90;;;4.70;100.00;98310.19;4961893;28;20043;-68
2023/02/01 09:08:42;;;;;;;25.58;4.40;;;5.30;99.90;;;4.56;100.00;98313.75;4974409;28;20397;-68
2023/02/01 09:11:15;;;;;;;25.55;4.05;;;5.40;99.90;;;4.58;100.00;98311.16;4951126;28;20534;-69
2023/02/01 09:13:43;;;;;;;24.10;4.22;;;5.30;99.90;;;4.57;100.00;98312.88;4962772;28;20049;-69
2023/02/01 09:16:11;;;;;;;20.98;4.18;;;5.20;99.90;;;4.48;100.00;98327.50;4956639;28;20055;-69
2023/02/01 09:18:38;;;;;;;28.70;4.82;;;5.30;99.90;;;4.58;100.00;98324.00;4954886;28;20666;-69
2023/02/01 09:21:22;;;;;;;28.80;4.40;;;5.30;99.90;;;4.49;100.00;98335.19;4956373;28;20065;-69
2023/02/01 09:23:51;;;;;;;20.95;3.80;;;5.30;99.90;;;4.68;100.00;98314.53;4954189;28;20080;-68
2023/02/01 09:26:18;;;;;;;19.40;3.25;;;5.40;99.90;;;4.51;100.00;98336.03;4957310;28;20069;-68
2023/02/01 09:28:48;;;;;;;21.02;4.22;;;5.40;99.90;;;4.72;100.00;98326.47;4958588;28;20158;-69
2023/02/01 09:31:15;;;;;;;22.27;3.83;;;5.30;99.90;;;4.69;100.00;98318.78;4958043;28;20513;-68
2023/02/01 09:33:42;;;;;;;22.00;4.65;;;5.40;99.90;;;4.72;100.00;98350.50;4960653;28;20054;-69
2023/02/01 09:36:10;;;;;;;27.60;5.25;;;5.50;99.90;;;4.71;100.00;98347.94;4959623;28;20046;-69
2023/02/01 09:38:37;;;;;;;21.48;3.85;;;5.50;99.90;;;4.60;100.00;98363.41;4960220;28;20057;-69
2023/02/01 09:41:49;;;;;;;21.45;3.63;;;5.40;99.90;;;4.49;100.00;98372.91;4957718;28;20078;-69
2023/02/01 09:45:06;;;;;;;20.20;3.75;;;5.30;99.90;;;4.62;100.00;98369.41;4961653;28;20577;-66
2023/02/01 09:47:45;;;;;;;24.48;4.18;;;5.20;99.90;;;4.43;100.00;98350.66;4960153;28;20584;-67
2023/02/01 09:50:22;;;;;;;17.70;3.42;;;5.30;99.90;;;4.50;100.00;98387.50;4962854;28;20054;-67
2023/02/01 09:53:06;;;;;;;30.50;4.05;;;5.30;99.90;;;4.54;100.00;98372.03;4962606;28;20466;-69
2023/02/01 09:55:49;;;;;;;28.35;4.03;;;5.20;99.90;;;4.36;100.00;98416.69;4958245;28;20046;-66
2023/02/01 09:58:38;;;;;;;24.15;2.72;;;5.20;99.90;;;4.63;100.00;98362.53;4940846;28;20051;-66
2023/02/01 10:01:19;;;;;;;23.45;3.88;;;5.30;99.90;;;4.76;100.00;98362.44;4962156;28;20098;-67
2023/02/01 10:03:46;;;;;;;25.55;3.60;;;5.40;99.90;;;4.68;100.00;98353.94;4957728;28;20130;-67
2023/02/01 10:06:52;;;;;;;26.48;4.00;;;5.40;99.90;;;4.84;100.00;98361.56;4973270;28;20642;-67
2023/02/01 10:09:59;;;;;;;20.92;3.40;;;5.50;99.90;;;4.76;100.00;98352.16;4951015;28;20726;-66
2023/02/01 10:12:59;;;;;;;23.80;4.55;;;5.60;99.90;;;4.99;100.00;98357.13;4956364;28;20049;-67
2023/02/01 10:15:28;;;;;;;30.17;3.92;;;5.60;99.90;;;4.75;100.00;98359.91;4974863;28;20055;-67
2023/02/01 10:18:33;;;;;;;22.33;3.15;;;5.60;99.90;;;4.79;100.00;98362.44;4960522;28;20588;-67
2023/02/01 10:21:25;;;;;;;22.30;4.22;;;5.70;99.90;;;4.71;100.00;98364.19;4959535;28;20421;-67
2023/02/01 10:24:05;;;;;;;18.35;3.05;;;5.70;99.90;;;4.94;100.00;98370.91;4956067;28;20153;-67
2023/02/01 10:26:51;;;;;;;16.50;2.75;;;5.70;99.90;;;4.85;100.00;98394.97;4958411;28;20401;-69
2023/02/01 10:29:31;;;;;;;20.27;3.50;;;5.70;99.90;;;4.77;100.00;98394.19;4942690;28;20068;-69
2023/02/01 10:31:58;;;;;;;22.80;3.17;;;5.60;99.90;;;4.84;100.00;98375.28;4970934;28;20069;-69
2023/02/01 10:34:31;;;;;;;27.38;4.88;;;5.60;99.90;;;4.75;100.00;98377.91;4945195;28;20103;-69
2023/02/01 10:37:18;;;;;;;;;;;5.50;99.90;;;4.56;100.00;98387.44;4959852;28;20089;-70
2023/02/01 10:39:53;;;;;;;22.20;3.45;;;5.50;99.90;;;4.57;100.00;98372.00;4970170;28;20012;-69
2023/02/01 10:42:25;;;;;;;20.75;3.75;;;5.40;99.90;;;4.63;100.00;98370.25;4956912;28;20055;-69
2023/02/01 10:44:57;;;;;;;27.27;4.22;;;5.40;99.90;;;4.61;100.00;98375.44;4941625;28;20830;-69
2023/02/01 10:47:25;;;;;;;19.23;3.97;;;5.50;99.90;;;4.56;100.00;98372.00;4957456;28;20529;-69
2023/02/01 10:50:02;;;;;;;20.08;4.35;;;5.60;99.90;;;4.54;100.00;98364.31;4972222;28;20133;-70
2023/02/01 10:53:04;;;;;;;26.23;3.92;;;5.50;99.90;;;4.51;100.00;98366.03;4957465;28;20094;-69
2023/02/01 10:55:39;;;;;;;25.90;3.83;;;5.60;99.90;;;4.61;100.00;98342.84;4957330;28;20065;-69
2023/02/01 10:58:31;;;;;;;27.08;4.15;;;5.50;99.90;;;4.57;100.00;98330.03;4955563;28;20078;-70
2023/02/01 11:01:05;;;;;;;23.13;3.90;;;5.50;99.90;;;4.44;100.00;98330.97;4960124;28;20138;-70
2023/02/01 11:03:51;;;;;;;30.13;4.18;;;5.40;99.90;;;4.76;100.00;98307.59;4958292;28;20288;-69
2023/02/01 11:06:21;;;;;;;19.75;3.63;;;5.40;99.90;;;4.59;100.00;98308.56;4961439;28;20063;-70
2023/02/01 11:08:53;;;;;;;24.05;3.03;;;5.40;99.90;;;4.61;100.00;98308.56;4963087;28;20528;-69
2023/02/01 11:11:22;;;;;;;24.40;4.65;;;5.40;99.90;;;4.48;100.00;98299.22;4963694;28;20061;-69